Etusivu
METAR-TAF:

METAR-TAF

Lentoasemat :

Karlstad, Ruotsi

Leveyspiiri: 59-26-41N, Pituuspiiri: 013-20-15E, korkeus merenpinnasta: 107 m

Tämänhetkinen sää

Tämä raportti tehtiin 12 minuuttia sitten, kello 19.20 UTC
Tuuli 10 kn etelästä
Lämpötila 19°C
Kosteus 68%
Ilmanpaine 1007 hPa
Näkyvyys 10 km tai enemmän

METAR: ESOK 211920Z AUTO 19010KT 9999 NCD 19/13 Q1007

Aika: 21:32 (19:32 UTC)

Sääennuste

Tämä raportti tehtiin 8 tuntia ja 2 minuuttia sitten, kello 11.30 UTC
Ennuste voimassa 21. päivästä klo 12 UTC - 21. päivään klo 14 UTC
Tuuli 8 kn etelästä/kaakosta
Näkyvyys 10 km tai enemmän
ei pilviä alle 1500 m:ssä eikä cumulonimbus-pilviä

TAF: ESOK 211130Z 2112/2114 16008KT CAVOK

Säähavainnot ja -ennusteet yli 4000 lentoasemalta (METAR- ja TAF-raportit).

Käytössä olevat sääasemat on merkitty karttaan keltaisilla ja punaisilla pisteillä.

Aseta hiiri pisteen päälle nähdäksesi sääaseman nimen.

Klikkaa sitten nähdäksesi säähavainnot ja -ennusteet.

Kartan vaihtaminen: klikkaa mustalla rastilla varustettuja vihreitä pisteitä, niin voit zoomata sisään; viivalla varustettua vihreää pistettä, niin voit zoomata ulos tai vihreitä nuolia, niin pääset viereisille kartoille.


METAR-TAF: